Time;durP1;ratioP1;P1;durP2;ratioP2;P2;SDS_P1;SDS_P2;PMS_P1;PMS_P2;Temp;Humidity;BMP_temperature;BMP_pressure;BME280_temperature;BME280_humidity;BME280_pressure;Samples;Min_cycle;Max_cycle;Signal;HPM_P1;HPM_P2
2020/12/09 00:00:25;;;;;;;48.20;17.50;;;;;;;-1.87;81.73;98730.20;2123165;84;21564;-60
2020/12/09 00:03:28;;;;;;;42.40;16.30;;;;;;;-1.86;81.47;98725.05;2122704;83;21592;-60
2020/12/09 00:06:29;;;;;;;44.23;18.25;;;;;;;-1.84;82.26;98726.31;2122908;84;21741;-60
2020/12/09 00:09:30;;;;;;;45.73;18.30;;;;;;;-1.85;81.63;98721.61;2123165;83;21115;-61
2020/12/09 00:12:31;;;;;;;52.38;19.02;;;;;;;-1.82;81.28;98729.28;2123115;83;21139;-60
2020/12/09 00:15:33;;;;;;;48.05;20.55;;;;;;;-1.83;81.54;98717.29;2122903;84;21289;-60
2020/12/09 00:18:34;;;;;;;45.25;18.55;;;;;;;-1.84;81.24;98722.04;2122737;83;21293;-61
2020/12/09 00:21:35;;;;;;;46.95;19.07;;;;;;;-1.84;81.55;98727.59;2122875;84;21575;-61
2020/12/09 00:24:36;;;;;;;44.93;17.07;;;;;;;-1.86;81.21;98725.05;2139123;83;21285;-61
2020/12/09 00:27:38;;;;;;;45.85;17.75;;;;;;;-1.88;81.45;98713.94;2139589;83;21284;-60
2020/12/09 00:30:39;;;;;;;42.13;17.15;;;;;;;-1.89;81.61;98719.95;2139620;83;21316;-60
2020/12/09 00:33:40;;;;;;;42.90;16.55;;;;;;;-1.89;82.42;98726.38;2139444;83;21606;-60
2020/12/09 00:36:41;;;;;;;49.65;19.48;;;;;;;-1.88;81.28;98729.37;2139537;83;21309;-60
2020/12/09 00:39:42;;;;;;;44.75;18.42;;;;;;;-1.87;81.18;98731.49;2139415;83;21163;-60
2020/12/09 00:42:43;;;;;;;44.88;18.62;;;;;;;-1.87;81.30;98728.48;2139702;83;21130;-60
2020/12/09 00:45:44;;;;;;;42.00;16.75;;;;;;;-1.87;81.29;98731.05;2139471;83;21729;-61
2020/12/09 00:48:46;;;;;;;41.10;15.10;;;;;;;-1.88;81.64;98723.36;2140160;83;21293;-61
2020/12/09 00:51:47;;;;;;;42.30;16.82;;;;;;;-1.89;81.95;98721.67;2139868;83;21297;-61
2020/12/09 00:54:48;;;;;;;42.83;16.02;;;;;;;-1.88;81.75;98721.66;2139608;83;21329;-60
2020/12/09 00:57:49;;;;;;;40.95;16.20;;;;;;;-1.88;81.57;98719.08;2139471;83;21264;-61
2020/12/09 01:00:51;;;;;;;38.48;15.30;;;;;;;-1.89;81.66;98718.66;2139918;83;21685;-60
2020/12/09 01:03:53;;;;;;;41.73;16.23;;;;;;;-1.88;81.59;98718.21;2139612;83;21547;-61
2020/12/09 01:06:54;;;;;;;42.43;16.32;;;;;;;-1.88;81.56;98720.37;2139391;83;21187;-61
2020/12/09 01:09:55;;;;;;;41.08;16.05;;;;;;;-1.87;81.35;98713.05;2139527;83;21162;-61
2020/12/09 01:12:57;;;;;;;47.38;18.17;;;;;;;-1.87;81.34;98714.78;2139882;83;21142;-61
2020/12/09 01:15:58;;;;;;;47.05;17.15;;;;;;;-1.88;81.52;98713.94;2139639;83;21304;-61
2020/12/09 01:19:00;;;;;;;44.98;17.20;;;;;;;-1.90;81.40;98718.23;2140022;83;21288;-61
2020/12/09 01:22:01;;;;;;;44.88;17.77;;;;;;;-1.90;81.73;98715.66;2139467;83;21293;-60
2020/12/09 01:25:02;;;;;;;44.45;16.62;;;;;;;-1.90;81.44;98716.95;2122999;84;21298;-61
2020/12/09 01:28:03;;;;;;;45.50;16.10;;;;;;;-1.92;81.61;98722.56;2123109;84;21123;-61
2020/12/09 01:31:05;;;;;;;45.08;16.55;;;;;;;-1.94;81.81;98720.42;2122696;83;21289;-60
2020/12/09 01:34:06;;;;;;;41.30;15.00;;;;;;;-1.98;81.35;98711.08;2123084;83;21147;-61
2020/12/09 01:37:07;;;;;;;41.75;15.30;;;;;;;-1.99;82.06;98710.65;2122707;84;21764;-61
2020/12/09 01:40:08;;;;;;;43.08;16.37;;;;;;;-2.01;82.04;98708.09;2122702;84;21313;-61
2020/12/09 01:43:10;;;;;;;44.08;15.85;;;;;;;-2.02;81.79;98723.09;2122504;84;21355;-61
2020/12/09 01:46:11;;;;;;;38.73;14.55;;;;;;;-2.03;81.84;98721.83;2122663;83;21175;-60
2020/12/09 01:49:12;;;;;;;45.28;16.42;;;;;;;-2.05;81.89;98718.41;2122837;84;21282;-61
2020/12/09 01:52:13;;;;;;;42.67;16.77;;;;;;;-2.06;81.64;98716.73;2122478;84;21372;-61
2020/12/09 01:55:14;;;;;;;43.40;16.02;;;;;;;-2.09;81.66;98713.75;2122553;84;21286;-61
2020/12/09 01:58:15;;;;;;;48.38;17.23;;;;;;;-2.10;81.97;98713.33;2122830;84;21285;-60
2020/12/09 02:01:16;;;;;;;47.05;17.10;;;;;;;-2.14;82.33;98712.53;2122621;84;21749;-60
2020/12/09 02:04:18;;;;;;;41.35;15.45;;;;;;;-2.14;82.05;98703.95;2122618;84;21591;-61
2020/12/09 02:07:19;;;;;;;42.23;16.10;;;;;;;-2.13;82.19;98710.36;2123013;84;21334;-61
2020/12/09 02:10:20;;;;;;;45.48;16.30;;;;;;;-2.12;82.14;98711.23;2122642;84;21317;-61
2020/12/09 02:13:21;;;;;;;45.35;15.58;;;;;;;-2.13;81.72;98714.21;2122635;83;21729;-61
2020/12/09 02:16:23;;;;;;;36.25;13.62;;;;;;;-2.11;82.26;98716.34;2123009;84;21297;-60
2020/12/09 02:19:24;;;;;;;42.17;15.30;;;;;;;-2.12;82.15;98718.49;2122512;84;21150;-60
2020/12/09 02:22:25;;;;;;;39.15;15.20;;;;;;;-2.11;81.91;98725.79;2123818;83;21258;-60
2020/12/09 02:25:26;;;;;;;39.63;15.03;;;;;;;-2.13;81.78;98721.92;2139446;83;21590;-61
2020/12/09 02:28:28;;;;;;;47.35;17.35;;;;;;;-2.13;81.75;98722.37;2139491;83;21142;-60
2020/12/09 02:31:29;;;;;;;43.15;15.95;;;;;;;-2.14;81.57;98724.09;2139654;83;21166;-60
2020/12/09 02:34:30;;;;;;;40.92;14.38;;;;;;;-2.16;81.74;98722.41;2139306;83;21170;-60
2020/12/09 02:37:32;;;;;;;36.70;14.20;;;;;;;-2.19;81.70;98716.02;2139703;83;21268;-60
2020/12/09 02:40:33;;;;;;;44.48;15.40;;;;;;;-2.21;81.95;98722.46;2139408;83;21293;-61
2020/12/09 02:43:34;;;;;;;45.90;16.42;;;;;;;-2.23;81.82;98725.47;2139391;83;21602;-61
2020/12/09 02:46:35;;;;;;;41.23;15.70;;;;;;;-2.22;81.49;98728.91;2139454;83;21158;-61
2020/12/09 02:49:36;;;;;;;42.75;15.70;;;;;;;-2.25;81.60;98725.93;2139755;83;21341;-61
2020/12/09 02:52:37;;;;;;;43.02;16.40;;;;;;;-2.29;81.67;98730.23;2139561;83;21265;-61
2020/12/09 02:55:38;;;;;;;37.90;15.05;;;;;;;-2.30;81.60;98728.97;2139418;83;21166;-60
2020/12/09 02:58:40;;;;;;;40.65;15.63;;;;;;;-2.31;81.54;98731.14;2139804;83;21289;-60
2020/12/09 03:01:41;;;;;;;38.92;14.87;;;;;;;-2.34;81.53;98735.00;2139295;83;21163;-60
2020/12/09 03:04:43;;;;;;;38.50;16.60;;;;;;;-2.33;81.75;98733.73;2139740;83;21313;-60
2020/12/09 03:07:44;;;;;;;43.52;17.17;;;;;;;-2.27;81.81;98736.23;2139333;83;21150;-59
2020/12/09 03:10:45;;;;;;;43.38;16.67;;;;;;;-2.22;81.71;98736.17;2139768;83;21289;-60
2020/12/09 03:13:46;;;;;;;39.78;15.43;;;;;;;-2.19;81.78;98734.84;2139492;83;21145;-60
2020/12/09 03:16:47;;;;;;;42.73;16.93;;;;;;;-2.16;81.96;98732.69;2139539;83;21166;-60
2020/12/09 03:19:48;;;;;;;44.42;17.12;;;;;;;-2.12;81.96;98739.50;2139959;83;21319;-60
2020/12/09 03:22:50;;;;;;;44.15;16.50;;;;;;;-2.06;81.81;98733.44;2139556;83;21268;-60
2020/12/09 03:25:51;;;;;;;41.10;15.75;;;;;;;-2.03;81.80;98741.95;2139623;83;21728;-60
2020/12/09 03:28:53;;;;;;;43.13;16.45;;;;;;;-1.97;81.94;98746.17;2140098;83;21277;-61
2020/12/09 03:31:54;;;;;;;41.08;16.07;;;;;;;-1.91;81.52;98749.98;2139597;83;21285;-60
2020/12/09 03:34:55;;;;;;;40.38;15.40;;;;;;;-1.87;81.70;98740.05;2139612;83;21774;-60
2020/12/09 03:37:56;;;;;;;43.33;15.45;;;;;;;-1.85;81.72;98740.90;2139519;83;21155;-60
2020/12/09 03:40:57;;;;;;;40.50;16.17;;;;;;;-1.86;81.89;98735.77;2139499;83;21107;-60
2020/12/09 03:43:59;;;;;;;42.30;15.83;;;;;;;-1.85;81.71;98743.88;2139554;83;21316;-60
2020/12/09 03:47:00;;;;;;;44.77;17.25;;;;;;;-1.84;81.55;98743.89;2139460;83;21618;-60
2020/12/09 03:50:02;;;;;;;41.87;16.40;;;;;;;-1.81;81.87;98744.27;2140217;83;21288;-60
2020/12/09 03:53:03;;;;;;;46.30;17.10;;;;;;;-1.78;81.56;98742.52;2139605;83;21285;-61
2020/12/09 03:56:05;;;;;;;48.08;17.57;;;;;;;-1.77;81.61;98740.38;2139576;83;21285;-60
2020/12/09 03:59:06;;;;;;;48.68;16.77;;;;;;;-1.73;81.57;98745.03;2139617;83;21704;-60
2020/12/09 04:02:07;;;;;;;41.20;16.95;;;;;;;-1.71;81.51;98746.30;2139578;83;21617;-60
2020/12/09 04:05:08;;;;;;;40.03;15.63;;;;;;;-1.69;81.48;98744.57;2139544;83;21195;-59
2020/12/09 04:08:10;;;;;;;44.55;17.00;;;;;;;-1.66;81.41;98741.95;2112720;83;21292;-60
2020/12/09 04:11:11;;;;;;;40.92;15.05;;;;;;;-1.64;81.39;98740.20;2139473;83;21721;-59
2020/12/09 04:14:12;;;;;;;44.35;17.02;;;;;;;-1.65;81.48;98732.06;2139491;83;21155;-60
2020/12/09 04:17:13;;;;;;;40.23;17.05;;;;;;;-1.65;81.39;98726.92;2139580;83;21135;-60
2020/12/09 04:20:14;;;;;;;42.55;17.17;;;;;;;-1.64;81.36;98729.91;2139460;83;21131;-60
2020/12/09 04:23:15;;;;;;;44.67;16.37;;;;;;;-1.64;81.28;98729.91;2139868;83;21384;-60
2020/12/09 04:26:16;;;;;;;43.20;17.95;;;;;;;-1.63;81.40;98729.05;2139513;83;21301;-60
2020/12/09 04:29:17;;;;;;;42.38;17.42;;;;;;;-1.63;81.37;98726.03;2139444;83;21138;-59
2020/12/09 04:32:19;;;;;;;46.90;17.37;;;;;;;-1.61;81.20;98730.73;2139645;83;21737;-60
2020/12/09 04:35:20;;;;;;;43.20;16.85;;;;;;;-1.58;81.15;98734.97;2139430;83;21170;-60
2020/12/09 04:38:21;;;;;;;42.75;16.62;;;;;;;-1.55;81.09;98728.52;2139469;83;21266;-60
2020/12/09 04:41:22;;;;;;;46.75;17.87;;;;;;;-1.54;80.98;98739.20;2139478;83;21622;-60
2020/12/09 04:44:24;;;;;;;42.15;15.83;;;;;;;-1.54;80.94;98737.92;2139886;83;21325;-60
2020/12/09 04:47:25;;;;;;;47.13;17.55;;;;;;;-1.54;80.98;98725.50;2139821;83;21277;-60
2020/12/09 04:50:26;;;;;;;46.48;17.45;;;;;;;-1.55;80.90;98729.81;2139544;83;21284;-60
2020/12/09 04:53:27;;;;;;;43.68;16.87;;;;;;;-1.54;80.96;98728.91;2139511;83;21166;-60
2020/12/09 04:56:28;;;;;;;42.00;17.10;;;;;;;-1.54;81.01;98730.20;2112716;83;21324;-61
2020/12/09 04:59:29;;;;;;;43.08;15.83;;;;;;;-1.50;80.78;98717.72;2139749;83;21269;-60
2020/12/09 05:02:30;;;;;;;40.58;15.38;;;;;;;-1.50;80.66;98718.16;2139392;83;21555;-60
2020/12/09 05:05:31;;;;;;;41.33;16.73;;;;;;;-1.52;80.76;98714.33;2139450;83;21328;-60
2020/12/09 05:08:33;;;;;;;42.95;16.97;;;;;;;-1.53;80.67;98719.05;2139866;83;21284;-60
2020/12/09 05:11:34;;;;;;;44.53;16.67;;;;;;;-1.52;80.62;98724.62;2139742;83;21721;-60
2020/12/09 05:14:35;;;;;;;43.80;16.32;;;;;;;-1.52;80.64;98724.62;2139416;83;21154;-60
2020/12/09 05:17:37;;;;;;;40.12;15.35;;;;;;;-1.55;80.47;98723.38;2139417;83;21598;-60
2020/12/09 05:20:39;;;;;;;43.63;16.75;;;;;;;-1.59;80.45;98724.28;2139677;83;21309;-61
2020/12/09 05:23:41;;;;;;;43.23;17.75;;;;;;;-1.58;80.43;98727.25;2136896;83;21287;-61
2020/12/09 05:26:44;;;;;;;48.23;18.05;;;;;;;-1.55;80.34;98734.95;2122599;84;21261;-61
2020/12/09 05:29:45;;;;;;;45.70;17.27;;;;;;;-1.57;80.31;98734.11;2122588;84;21297;-60
2020/12/09 05:32:46;;;;;;;45.70;16.17;;;;;;;-1.58;80.23;98730.70;2122901;83;21301;-61
2020/12/09 05:35:47;;;;;;;47.10;17.62;;;;;;;-1.60;80.20;98728.56;2122721;84;21285;-61
2020/12/09 05:38:49;;;;;;;43.65;17.42;;;;;;;-1.61;80.12;98735.02;2122811;84;21812;-61
2020/12/09 05:41:50;;;;;;;48.90;17.82;;;;;;;-1.62;80.05;98743.63;2102481;84;21298;-61
2020/12/09 05:44:51;;;;;;;43.65;17.25;;;;;;;-1.65;80.14;98743.64;2122670;83;21285;-60
2020/12/09 05:47:52;;;;;;;47.80;17.12;;;;;;;-1.72;80.09;98736.45;2122688;84;21713;-61
2020/12/09 05:50:53;;;;;;;43.48;17.05;;;;;;;-1.75;80.12;98738.63;2122907;84;21717;-61
2020/12/09 05:53:55;;;;;;;48.00;18.45;;;;;;;-1.78;80.21;98735.22;2123072;83;21115;-61
2020/12/09 05:56:56;;;;;;;42.40;17.05;;;;;;;-1.85;80.18;98738.33;2122722;83;21139;-60
2020/12/09 05:59:57;;;;;;;44.27;16.70;;;;;;;-1.90;80.29;98730.25;2102533;84;21289;-60
2020/12/09 06:02:58;;;;;;;42.73;16.82;;;;;;;-1.97;80.41;98732.91;2122906;84;21313;-61
2020/12/09 06:05:59;;;;;;;42.98;16.70;;;;;;;-2.04;80.47;98743.25;2122601;84;21746;-61
2020/12/09 06:09:00;;;;;;;43.58;16.75;;;;;;;-2.12;80.71;98740.78;2122633;84;21733;-60
2020/12/09 06:12:03;;;;;;;53.10;18.85;;;;;;;-2.18;80.86;98740.86;2123094;84;21285;-60
2020/12/09 06:15:04;;;;;;;44.55;17.07;;;;;;;-2.18;80.79;98746.00;2123032;84;21191;-60
2020/12/09 06:18:06;;;;;;;44.58;17.67;;;;;;;-2.19;80.78;98743.84;2122680;84;21741;-61
2020/12/09 06:21:07;;;;;;;43.95;17.65;;;;;;;-2.21;80.90;98745.59;2122615;84;21289;-60
2020/12/09 06:24:08;;;;;;;41.33;16.50;;;;;;;-2.21;80.92;98756.28;2126902;83;21308;-60
2020/12/09 06:27:09;;;;;;;41.40;17.45;;;;;;;-2.22;80.99;98767.01;2139612;83;21308;-60
2020/12/09 06:30:11;;;;;;;46.02;18.23;;;;;;;-2.22;81.13;98773.87;2139443;83;21190;-60
2020/12/09 06:33:12;;;;;;;43.60;17.00;;;;;;;-2.22;80.97;98777.29;2139422;83;21146;-60
2020/12/09 06:36:13;;;;;;;47.23;19.10;;;;;;;-2.18;80.99;98779.41;2112824;83;21277;-60
2020/12/09 06:39:16;;;;;;;43.10;17.98;;;;;;;-2.19;80.89;98785.41;2139695;83;21280;-60
2020/12/09 06:42:17;;;;;;;;;;;;;;;-2.17;80.92;98777.23;2141885;83;21162;-60
2020/12/09 06:45:18;;;;;;;46.30;17.40;;;;;;;-2.16;80.86;98777.22;2139377;83;20208;-60
2020/12/09 06:48:20;;;;;;;46.02;17.73;;;;;;;-2.17;80.91;98783.25;2139292;83;21280;-61
2020/12/09 06:51:21;;;;;;;47.95;18.07;;;;;;;-2.16;80.97;98771.23;2139443;83;21111;-60
2020/12/09 06:54:22;;;;;;;42.08;16.62;;;;;;;-2.16;80.90;98781.07;2139428;83;21320;-60
2020/12/09 06:57:23;;;;;;;41.42;17.52;;;;;;;-2.15;80.99;98776.80;2139619;83;21284;-60
2020/12/09 07:00:25;;;;;;;43.58;17.57;;;;;;;-2.14;80.98;98787.48;2139694;83;21163;-59
2020/12/09 07:03:27;;;;;;;43.95;18.05;;;;;;;-2.11;81.01;98783.62;2140102;83;21277;-61
2020/12/09 07:06:29;;;;;;;46.37;19.05;;;;;;;-2.10;80.94;98787.87;2139697;83;21308;-60
2020/12/09 07:09:31;;;;;;;39.13;15.30;;;;;;;-2.13;80.85;98787.46;2139775;83;21582;-60
2020/12/09 07:12:32;;;;;;;41.77;17.85;;;;;;;-2.12;81.03;98784.03;2139570;83;21762;-60
2020/12/09 07:15:33;;;;;;;46.10;17.87;;;;;;;-2.12;80.88;98790.91;2139473;83;21183;-60
2020/12/09 07:18:36;;;;;;;43.50;17.87;;;;;;;-2.04;80.91;98794.25;2139999;83;21285;-61
2020/12/09 07:21:38;;;;;;;45.00;17.00;;;;;;;-1.99;80.69;98798.05;2139745;83;21146;-62
2020/12/09 07:24:39;;;;;;;49.77;19.03;;;;;;;-2.02;80.63;98799.38;2139767;83;21721;-60
2020/12/09 07:27:41;;;;;;;42.83;17.37;;;;;;;-2.04;80.81;98794.66;2139608;83;21276;-60
2020/12/09 07:30:44;;;;;;;48.98;17.45;;;;;;;-2.09;80.75;98792.15;2139439;83;21174;-61
2020/12/09 07:33:45;;;;;;;40.25;16.15;;;;;;;-2.09;80.82;98784.44;2139487;83;21831;-60
2020/12/09 07:36:47;;;;;;;40.38;15.05;;;;;;;-2.14;80.90;98808.91;2139476;83;21641;-61
2020/12/09 07:39:50;;;;;;;45.40;15.72;;;;;;;-2.12;81.19;98803.75;2139591;83;21174;-61
2020/12/09 07:42:52;;;;;;;40.35;16.85;;;;;;;-2.10;80.98;98796.86;2139478;83;21149;-61
2020/12/09 07:45:53;;;;;;;42.33;16.35;;;;;;;-2.11;80.94;98804.18;2139901;83;21312;-61
2020/12/09 07:48:54;;;;;;;44.60;17.95;;;;;;;-2.10;81.09;98791.31;2139397;83;21150;-60
2020/12/09 07:51:57;;;;;;;46.50;17.75;;;;;;;-2.13;81.04;98799.02;2139564;83;21273;-61
2020/12/09 07:54:58;;;;;;;41.53;16.55;;;;;;;-2.07;81.02;98803.70;2139603;83;21792;-61
2020/12/09 07:57:59;;;;;;;48.68;16.62;;;;;;;-2.00;81.04;98804.05;2112824;83;21154;-60
2020/12/09 08:01:01;;;;;;;40.90;15.95;;;;;;;-1.94;80.74;98805.27;2139455;83;21170;-60
2020/12/09 08:04:02;;;;;;;39.30;16.62;;;;;;;-1.91;80.65;98802.69;2139689;83;21622;-60
2020/12/09 08:07:05;;;;;;;;;;;;;;;-1.91;80.63;98800.11;2142010;83;21171;-60
2020/12/09 08:10:07;;;;;;;48.30;19.17;;;;;;;-1.96;80.54;98807.85;2139775;83;20149;-61
2020/12/09 08:13:09;;;;;;;47.93;19.43;;;;;;;-1.95;80.71;98804.87;2140176;83;21158;-60
2020/12/09 08:16:11;;;;;;;48.27;18.10;;;;;;;-2.00;80.81;98810.03;2140089;83;21276;-60
2020/12/09 08:19:13;;;;;;;65.00;22.17;;;;;;;-2.04;81.16;98809.67;2139697;83;21159;-61
2020/12/09 08:22:14;;;;;;;73.60;24.10;;;;;;;-1.99;81.01;98820.75;2139523;83;21765;-61
2020/12/09 08:25:15;;;;;;;61.63;21.95;;;;;;;-1.95;80.86;98825.44;2139288;83;21134;-61
2020/12/09 08:28:18;;;;;;;55.80;22.87;;;;;;;-1.93;80.79;98821.11;2139909;83;21702;-60
2020/12/09 08:31:21;;;;;;;49.88;20.75;;;;;;;-1.86;80.76;98820.63;2139647;83;21703;-61
2020/12/09 08:34:22;;;;;;;42.95;18.45;;;;;;;-1.82;80.70;98825.71;2139541;83;21162;-61
2020/12/09 08:37:23;;;;;;;41.40;16.35;;;;;;;-1.75;80.53;98808.50;2139677;83;21264;-61
2020/12/09 08:40:24;;;;;;;49.27;19.37;;;;;;;-1.75;80.52;98814.48;2139492;83;21288;-61
2020/12/09 08:43:25;;;;;;;48.08;21.17;;;;;;;-1.75;80.67;98812.36;2139538;83;21158;-60
2020/12/09 08:46:27;;;;;;;46.83;18.85;;;;;;;-1.76;80.61;98814.06;2139448;83;21738;-61
2020/12/09 08:49:28;;;;;;;46.55;17.67;;;;;;;-1.70;80.34;98806.72;2139571;83;21186;-61
2020/12/09 08:52:29;;;;;;;44.60;18.48;;;;;;;-1.68;80.45;98798.98;2139617;83;21717;-61
2020/12/09 08:55:31;;;;;;;48.13;18.20;;;;;;;-1.61;80.42;98798.03;2112911;83;21281;-60
2020/12/09 08:58:32;;;;;;;48.58;20.65;;;;;;;-1.60;80.45;98803.16;2139574;83;21147;-61
2020/12/09 09:01:35;;;;;;;51.15;21.85;;;;;;;-1.53;80.30;98808.25;2112972;83;21272;-61
2020/12/09 09:04:39;;;;;;;52.35;22.60;;;;;;;-1.51;80.28;98815.50;2139523;83;21296;-61
2020/12/09 09:07:42;;;;;;;58.58;25.45;;;;;;;-1.45;80.29;98817.57;2139893;83;21173;-61
2020/12/09 09:10:45;;;;;;;57.85;22.82;;;;;;;-1.35;80.09;98821.30;2139495;83;21701;-60
2020/12/09 09:13:46;;;;;;;49.07;20.50;;;;;;;-1.33;79.85;98814.43;2139808;83;21150;-61
2020/12/09 09:16:49;;;;;;;46.77;18.40;;;;;;;-1.34;79.68;98817.87;2139865;83;21115;-61
2020/12/09 09:19:50;;;;;;;54.70;22.30;;;;;;;-1.26;79.88;98819.47;2139454;83;21127;-61
2020/12/09 09:22:52;;;;;;;47.48;18.80;;;;;;;-1.17;79.97;98814.63;2139392;83;21591;-59
2020/12/09 09:25:53;;;;;;;52.70;21.27;;;;;;;-1.15;79.36;98810.33;2130857;83;21274;-60
2020/12/09 09:28:54;;;;;;;51.15;20.48;;;;;;;-1.21;79.41;98811.67;2122851;84;21151;-61
2020/12/09 09:31:56;;;;;;;50.25;19.60;;;;;;;-1.24;79.42;98813.85;2122763;84;21176;-60
2020/12/09 09:34:57;;;;;;;42.38;16.30;;;;;;;-1.22;79.57;98800.55;2123022;84;21131;-61
2020/12/09 09:37:58;;;;;;;58.23;21.87;;;;;;;-1.26;79.31;98811.75;2122805;84;21784;-61
2020/12/09 09:41:00;;;;;;;55.30;20.23;;;;;;;-1.24;79.63;98809.15;2122756;84;21281;-61
2020/12/09 09:44:01;;;;;;;47.85;18.73;;;;;;;-1.20;79.52;98817.25;2123272;84;21164;-59
2020/12/09 09:47:03;;;;;;;64.25;23.83;;;;;;;-1.22;79.34;98815.98;2122658;83;21322;-61
2020/12/09 09:50:04;;;;;;;46.45;20.95;;;;;;;-1.17;79.69;98816.36;2122871;84;21277;-60
2020/12/09 09:53:05;;;;;;;57.25;21.97;;;;;;;-1.06;79.49;98810.19;2122646;84;21761;-60
2020/12/09 09:56:07;;;;;;;57.40;22.67;;;;;;;-1.05;79.25;98815.76;2122669;84;21607;-59
2020/12/09 09:59:09;;;;;;;60.95;21.70;;;;;;;-0.94;79.43;98822.47;2123019;83;21146;-60
2020/12/09 10:02:24;;;;;;;53.33;20.17;;;;;;;-0.90;78.96;98822.41;2122552;83;21100;-61
2020/12/09 10:05:27;;;;;;;74.40;26.87;;;;;;;-0.90;78.57;98823.69;2120221;84;21623;-60
2020/12/09 10:08:29;;;;;;;59.58;22.50;;;;;;;-0.91;78.79;98819.84;2122231;84;21155;-60
2020/12/09 10:11:31;;;;;;;52.23;21.97;;;;;;;-0.87;78.22;98817.65;2122756;84;21277;-60
2020/12/09 10:14:33;;;;;;;63.35;24.72;;;;;;;-0.81;78.93;98818.00;2122637;84;21448;-60
2020/12/09 10:17:35;;;;;;;;;;;;;;;-0.73;78.75;98821.31;2125078;84;21273;-60
2020/12/09 10:20:37;;;;;;;58.00;21.93;;;;;;;-0.72;78.54;98816.55;2122615;84;20145;-59
2020/12/09 10:23:38;;;;;;;51.55;21.87;;;;;;;-0.71;78.75;98816.53;2123027;84;21162;-60
2020/12/09 10:26:40;;;;;;;61.98;22.98;;;;;;;-0.62;78.55;98815.53;2129257;83;21705;-59
2020/12/09 10:29:43;;;;;;;58.87;21.95;;;;;;;-0.58;78.42;98811.20;2132440;83;21135;-59
2020/12/09 10:32:45;;;;;;;57.78;24.23;;;;;;;-0.50;78.40;98817.08;2132348;83;21297;-59
2020/12/09 10:35:46;;;;;;;61.65;25.15;;;;;;;-0.49;78.09;98820.05;2132418;83;21769;-60
2020/12/09 10:38:47;;;;;;;63.75;26.12;;;;;;;-0.46;78.02;98824.31;2132248;83;21186;-60
2020/12/09 10:41:49;;;;;;;56.28;22.07;;;;;;;-0.44;78.44;98813.11;2132234;83;21317;-61
2020/12/09 10:44:50;;;;;;;62.53;25.17;;;;;;;-0.41;77.89;98821.23;2132278;83;21127;-60
2020/12/09 10:47:51;;;;;;;59.42;23.85;;;;;;;-0.40;78.07;98816.05;2132578;83;21280;-61
2020/12/09 10:50:52;;;;;;;65.47;24.05;;;;;;;-0.32;77.00;98810.75;2132242;83;21166;-61
2020/12/09 10:53:53;;;;;;;56.92;23.95;;;;;;;-0.39;77.80;98812.61;2132409;83;21732;-61
2020/12/09 10:56:54;;;;;;;53.23;21.65;;;;;;;-0.39;77.41;98811.31;2132678;83;21726;-60
2020/12/09 10:59:56;;;;;;;57.03;25.23;;;;;;;-0.40;77.72;98809.61;2132522;83;21593;-61
2020/12/09 11:02:57;;;;;;;53.98;21.45;;;;;;;-0.41;77.44;98807.06;2132408;83;21757;-61
2020/12/09 11:05:59;;;;;;;54.33;22.07;;;;;;;-0.44;77.29;98810.98;2132305;83;21334;-60
2020/12/09 11:09:00;;;;;;;55.73;22.93;;;;;;;-0.49;77.56;98808.91;2132495;83;21291;-61
2020/12/09 11:12:01;;;;;;;51.40;19.77;;;;;;;-0.49;77.49;98802.46;2132394;83;21293;-61
2020/12/09 11:15:02;;;;;;;55.78;23.42;;;;;;;-0.54;77.58;98803.83;2132538;83;21729;-61
2020/12/09 11:18:04;;;;;;;56.80;22.77;;;;;;;-0.53;77.48;98793.95;2132272;83;21155;-60
2020/12/09 11:21:05;;;;;;;55.60;22.37;;;;;;;-0.58;77.70;98790.58;2132768;83;21290;-61
2020/12/09 11:24:06;;;;;;;56.37;22.22;;;;;;;-0.55;77.59;98794.39;2132724;83;21304;-60
2020/12/09 11:27:07;;;;;;;51.68;20.97;;;;;;;-0.53;77.50;98793.95;2125376;83;21171;-60
2020/12/09 11:30:09;;;;;;;57.45;23.77;;;;;;;-0.57;76.96;98780.25;2122536;84;21639;-61
2020/12/09 11:33:10;;;;;;;51.92;20.88;;;;;;;-0.56;77.48;98781.09;2123014;83;21706;-60
2020/12/09 11:36:11;;;;;;;55.35;23.98;;;;;;;-0.57;77.43;98782.83;2122456;84;21317;-61
2020/12/09 11:39:12;;;;;;;58.33;23.45;;;;;;;-0.53;77.70;98775.91;2122993;84;21146;-60
2020/12/09 11:42:14;;;;;;;53.55;19.92;;;;;;;-0.49;77.40;98777.53;2122762;84;21718;-61
2020/12/09 11:45:15;;;;;;;57.83;25.27;;;;;;;-0.53;77.23;98779.77;2123123;84;21594;-61
2020/12/09 11:48:17;;;;;;;58.05;20.75;;;;;;;-0.55;77.34;98770.78;2122690;83;21262;-61
2020/12/09 11:51:19;;;;;;;57.33;23.45;;;;;;;-0.53;77.29;98774.63;2122748;84;21204;-60
2020/12/09 11:54:20;;;;;;;52.88;22.00;;;;;;;-0.58;76.93;98757.92;2122771;84;21293;-60
2020/12/09 11:57:21;;;;;;;53.33;20.65;;;;;;;-0.58;77.13;98762.24;2122644;84;21748;-61
2020/12/09 12:00:23;;;;;;;55.12;23.12;;;;;;;-0.63;77.28;98760.16;2122889;84;21750;-61
2020/12/09 12:03:24;;;;;;;50.48;20.62;;;;;;;-0.56;77.54;98759.19;2122604;84;21289;-61
2020/12/09 12:06:28;;;;;;;56.10;23.83;;;;;;;-0.51;77.25;98753.53;2122570;84;21549;-61
2020/12/09 12:09:30;;;;;;;50.48;22.22;;;;;;;-0.45;77.48;98758.56;2122737;84;21168;-60
2020/12/09 12:12:32;;;;;;;52.17;21.65;;;;;;;-0.41;77.42;98758.93;2123256;84;21281;-61
2020/12/09 12:15:33;;;;;;;51.98;22.05;;;;;;;-0.38;77.26;98760.16;2122755;84;21159;-61
2020/12/09 12:18:35;;;;;;;50.28;20.27;;;;;;;-0.40;77.11;98757.22;2122877;84;21725;-60
2020/12/09 12:21:36;;;;;;;53.45;21.70;;;;;;;-0.42;77.20;98755.09;2122628;83;21615;-61
2020/12/09 12:24:37;;;;;;;50.88;20.08;;;;;;;-0.40;77.25;98754.64;2122609;84;21273;-60
2020/12/09 12:27:38;;;;;;;56.88;22.77;;;;;;;-0.40;77.08;98747.75;2136195;83;21154;-60
2020/12/09 12:30:39;;;;;;;49.18;20.25;;;;;;;-0.42;76.79;98747.36;2139834;83;21293;-60
2020/12/09 12:33:40;;;;;;;57.80;23.57;;;;;;;-0.45;77.08;98749.55;2139405;83;21163;-60
2020/12/09 12:36:41;;;;;;;53.90;21.23;;;;;;;-0.43;77.31;98754.67;2139446;83;21151;-60
2020/12/09 12:39:43;;;;;;;54.83;22.05;;;;;;;-0.40;76.41;98754.20;2139664;83;21221;-60
2020/12/09 12:42:44;;;;;;;52.75;23.42;;;;;;;-0.42;77.00;98754.64;2139531;83;21300;-60
2020/12/09 12:45:45;;;;;;;54.88;21.82;;;;;;;-0.45;76.79;98753.86;2139488;83;21276;-60
2020/12/09 12:48:46;;;;;;;52.53;23.18;;;;;;;-0.50;77.09;98750.50;2139771;83;21277;-60
2020/12/09 12:51:51;;;;;;;50.30;20.57;;;;;;;-0.56;76.83;98748.46;2139450;83;21178;-61
2020/12/09 12:54:50;;;;;;;54.77;20.10;;;;;;;-0.67;77.02;98750.36;2139243;83;21151;-61
2020/12/09 12:57:52;;;;;;;55.95;22.42;;;;;;;-0.66;77.32;98753.78;2139548;83;22281;-60
2020/12/09 13:00:53;;;;;;;51.75;20.37;;;;;;;-0.64;77.33;98749.47;2139481;83;21325;-61
2020/12/09 13:03:54;;;;;;;57.33;23.73;;;;;;;-0.61;77.37;98745.09;2139374;83;21653;-60
2020/12/09 13:06:55;;;;;;;59.45;23.87;;;;;;;-0.61;77.36;98747.67;2139887;83;21309;-61
2020/12/09 13:09:58;;;;;;;57.43;23.85;;;;;;;-0.62;77.28;98744.68;2139409;83;21139;-60
2020/12/09 13:13:00;;;;;;;59.63;23.73;;;;;;;-0.58;77.33;98750.65;2139647;83;21305;-60
2020/12/09 13:16:02;;;;;;;59.38;24.85;;;;;;;-0.63;76.94;98745.58;2139505;83;21174;-60
2020/12/09 13:19:03;;;;;;;59.30;25.27;;;;;;;-0.61;77.33;98748.12;2139518;83;21118;-60
2020/12/09 13:22:05;;;;;;;61.08;25.27;;;;;;;-0.62;77.03;98744.68;2139413;83;21131;-60
2020/12/09 13:25:06;;;;;;;65.28;27.85;;;;;;;-0.62;77.19;98742.55;2139717;83;21578;-60
2020/12/09 13:28:08;;;;;;;68.10;26.07;;;;;;;-0.61;77.26;98741.23;2139624;83;21286;-60
2020/12/09 13:31:09;;;;;;;60.05;25.08;;;;;;;-0.63;77.24;98752.02;2139344;83;21194;-60
2020/12/09 13:34:10;;;;;;;59.45;26.17;;;;;;;-0.62;77.31;98745.13;2139304;83;21166;-60
2020/12/09 13:37:11;;;;;;;59.48;21.85;;;;;;;-0.61;77.27;98737.83;2139775;83;21280;-60
2020/12/09 13:40:12;;;;;;;62.45;25.85;;;;;;;-0.65;76.94;98738.30;2139442;83;21280;-60
2020/12/09 13:43:13;;;;;;;69.00;26.60;;;;;;;-0.66;76.77;98742.19;2139457;83;21186;-60
2020/12/09 13:46:15;;;;;;;73.28;29.82;;;;;;;-0.71;76.81;98730.23;2139947;83;21305;-60
2020/12/09 13:49:16;;;;;;;71.57;25.20;;;;;;;-0.78;76.93;98729.08;2139741;83;21590;-60
2020/12/09 13:52:17;;;;;;;74.92;27.20;;;;;;;-0.89;76.91;98720.23;2139443;83;21582;-60